Time;durP1;ratioP1;P1;durP2;ratioP2;P2;SDS_P1;SDS_P2;PMS_P1;PMS_P2;Temp;Humidity;BMP_temperature;BMP_pressure;BME280_temperature;BME280_humidity;BME280_pressure;Samples;Min_cycle;Max_cycle;Signal;HPM_P1;HPM_P2
2023/12/27 00:01:34;;;;;;;581.80;381.83;;;;;;;8.05;100.00;98513.34;5057831;28;20319;-57
2023/12/27 00:03:59;;;;;;;564.05;356.42;;;;;;;7.95;100.00;98525.28;5056973;28;20400;-56
2023/12/27 00:06:24;;;;;;;553.15;359.05;;;;;;;8.02;100.00;98521.06;5058518;28;20059;-58
2023/12/27 00:08:50;;;;;;;704.80;387.77;;;;;;;7.98;100.00;98523.59;5057394;28;20031;-57
2023/12/27 00:11:18;;;;;;;545.80;342.08;;;;;;;7.89;100.00;98527.78;5058025;28;20035;-57
2023/12/27 00:13:44;;;;;;;610.70;361.17;;;;;;;7.88;100.00;98533.81;5057222;28;20085;-57
2023/12/27 00:16:10;;;;;;;580.58;365.73;;;;;;;7.79;100.00;98533.63;5058401;28;20044;-57
2023/12/27 00:18:35;;;;;;;542.72;343.35;;;;;;;7.87;100.00;98532.03;5059560;28;20403;-56
2023/12/27 00:21:00;;;;;;;547.67;352.90;;;;;;;7.73;100.00;98542.19;5056997;28;20048;-56
2023/12/27 00:23:27;;;;;;;553.65;360.83;;;;;;;7.79;100.00;98544.88;5059222;28;20020;-57
2023/12/27 00:25:53;;;;;;;610.53;356.65;;;;;;;7.90;100.00;98542.47;5057960;28;20036;-58
2023/12/27 00:28:19;;;;;;;552.00;362.05;;;;;;;7.83;100.00;98535.44;5059475;28;20028;-57
2023/12/27 00:30:48;;;;;;;596.75;371.02;;;;;;;7.79;100.00;98536.22;5058004;28;20050;-57
2023/12/27 00:33:14;;;;;;;581.92;365.88;;;;;;;7.87;100.00;98520.84;5057621;28;20036;-56
2023/12/27 00:35:39;;;;;;;548.35;348.75;;;;;;;7.94;100.00;98520.94;5058474;28;20041;-57
2023/12/27 00:38:05;;;;;;;574.65;372.05;;;;;;;7.88;100.00;98528.63;5056753;28;20064;-58
2023/12/27 00:40:30;;;;;;;548.95;367.92;;;;;;;7.83;100.00;98525.06;5059151;28;20032;-56
2023/12/27 00:42:55;;;;;;;696.97;373.33;;;;;;;7.85;100.00;98518.22;5061868;28;20074;-58
2023/12/27 00:45:21;;;;;;;531.53;339.70;;;;;;;7.69;100.00;98522.28;5062782;28;20120;-57
2023/12/27 00:47:46;;;;;;;597.38;346.48;;;;;;;7.59;100.00;98536.78;5061547;28;20111;-58
2023/12/27 00:50:12;;;;;;;553.55;319.95;;;;;;;7.57;100.00;98533.28;5061495;28;20048;-57
2023/12/27 00:52:37;;;;;;;531.00;325.33;;;;;;;7.43;100.00;98535.63;5063703;28;20016;-57
2023/12/27 00:55:03;;;;;;;509.23;322.30;;;;;;;7.46;100.00;98548.63;5060266;28;20028;-57
2023/12/27 00:57:28;;;;;;;517.83;321.02;;;;;;;7.47;100.00;98546.91;5061201;28;20040;-57
2023/12/27 00:59:53;;;;;;;586.33;327.40;;;;;;;7.54;100.00;98549.63;5062008;28;20287;-56
2023/12/27 01:02:19;;;;;;;531.20;330.08;;;;;;;7.52;100.00;98551.31;5062196;28;20042;-57
2023/12/27 01:04:44;;;;;;;582.03;337.40;;;;;;;7.57;100.00;98555.72;5057834;28;20097;-58
2023/12/27 01:07:09;;;;;;;614.55;355.38;;;;;;;7.62;100.00;98552.38;5057098;28;20036;-56
2023/12/27 01:09:35;;;;;;;536.58;334.98;;;;;;;7.55;100.00;98564.34;5057457;28;20028;-61
2023/12/27 01:12:00;;;;;;;686.40;355.92;;;;;;;7.59;100.00;98578.19;5055582;28;20395;-57
2023/12/27 01:14:25;;;;;;;571.38;353.33;;;;;;;7.65;100.00;98575.69;5058425;28;20725;-57
2023/12/27 01:16:51;;;;;;;683.72;355.65;;;;;;;7.64;100.00;98581.72;5055334;28;20305;-55
2023/12/27 01:19:16;;;;;;;646.03;376.60;;;;;;;7.58;100.00;98575.56;5056859;28;20768;-56
2023/12/27 01:21:41;;;;;;;590.38;357.10;;;;;;;7.64;100.00;98576.56;5058123;28;20041;-57
2023/12/27 01:24:07;;;;;;;584.30;332.98;;;;;;;7.55;100.00;98581.56;5056679;28;20052;-57
2023/12/27 01:26:32;;;;;;;521.83;338.52;;;;;;;7.47;100.00;98575.38;5057761;28;20051;-57
2023/12/27 01:28:57;;;;;;;688.42;327.65;;;;;;;7.35;100.00;98576.88;5057741;28;20343;-56
2023/12/27 01:31:22;;;;;;;554.40;334.52;;;;;;;7.24;100.00;98568.91;5057178;28;20068;-57
2023/12/27 01:33:48;;;;;;;622.80;383.70;;;;;;;7.08;100.00;98572.03;5056217;28;20357;-57
2023/12/27 01:36:13;;;;;;;603.33;383.38;;;;;;;6.92;100.00;98582.09;5057443;28;20089;-56
2023/12/27 01:38:38;;;;;;;590.47;355.67;;;;;;;6.94;100.00;98580.38;5058257;28;20023;-58
2023/12/27 01:41:04;;;;;;;593.00;376.45;;;;;;;7.00;100.00;98595.16;5055885;28;20037;-57
2023/12/27 01:43:29;;;;;;;630.17;398.52;;;;;;;6.86;100.00;98594.88;5057225;28;20027;-56
2023/12/27 01:45:55;;;;;;;699.38;401.33;;;;;;;6.95;100.00;98597.69;5056436;28;20047;-57
2023/12/27 01:48:21;;;;;;;602.90;383.42;;;;;;;7.06;100.00;98590.13;5056160;28;20080;-57
2023/12/27 01:50:51;;;;;;;614.40;401.17;;;;;;;7.22;100.00;98585.25;5055567;28;20588;-57
2023/12/27 01:53:17;;;;;;;577.90;341.17;;;;;;;7.37;100.00;98585.56;5056777;28;20128;-58
2023/12/27 01:55:44;;;;;;;553.10;304.52;;;;;;;7.38;100.00;98584.72;5057099;28;20128;-57
2023/12/27 01:58:11;;;;;;;551.67;311.85;;;;;;;7.50;100.00;98586.66;5055644;28;20084;-57
2023/12/27 02:00:39;;;;;;;559.47;322.88;;;;;;;7.37;100.00;98582.09;5057477;28;20047;-58
2023/12/27 02:03:05;;;;;;;714.35;336.90;;;;;;;7.41;100.00;98583.91;5056058;28;20024;-56
2023/12/27 02:05:30;;;;;;;570.30;349.10;;;;;;;7.45;100.00;98590.03;5057324;28;20039;-57
2023/12/27 02:07:56;;;;;;;700.28;364.15;;;;;;;7.40;100.00;98592.50;5056280;28;20082;-57
2023/12/27 02:10:22;;;;;;;593.67;366.55;;;;;;;7.44;100.00;98594.31;5056483;28;20021;-57
2023/12/27 02:12:47;;;;;;;544.38;354.30;;;;;;;7.50;100.00;98596.16;5056762;28;20039;-57
2023/12/27 02:15:13;;;;;;;585.83;358.88;;;;;;;7.55;100.00;98607.47;5056251;28;20024;-57
2023/12/27 02:17:38;;;;;;;558.97;290.00;;;;;;;7.55;100.00;98598.00;5057507;28;20017;-57
2023/12/27 02:20:04;;;;;;;666.15;336.08;;;;;;;7.51;100.00;98595.31;5055863;28;20393;-57
2023/12/27 02:22:33;;;;;;;549.50;335.73;;;;;;;7.32;100.00;98587.19;5057477;28;20064;-58
2023/12/27 02:24:59;;;;;;;714.67;358.60;;;;;;;7.27;100.00;98581.91;5055742;28;20027;-57
2023/12/27 02:27:24;;;;;;;565.40;362.15;;;;;;;7.33;100.00;98582.88;5057194;28;20041;-56
2023/12/27 02:29:49;;;;;;;553.15;338.45;;;;;;;7.24;100.00;98586.19;5055793;28;20103;-56
2023/12/27 02:32:15;;;;;;;566.85;299.25;;;;;;;7.19;100.00;98572.28;5054848;28;20575;-57
2023/12/27 02:34:40;;;;;;;558.35;327.05;;;;;;;7.08;100.00;98562.56;5057565;28;20306;-56
2023/12/27 02:37:05;;;;;;;673.50;323.25;;;;;;;7.00;100.00;98557.25;5055193;28;20127;-57
2023/12/27 02:39:31;;;;;;;566.20;297.73;;;;;;;6.97;100.00;98558.88;5056854;28;20040;-57
2023/12/27 02:41:56;;;;;;;604.30;305.85;;;;;;;6.96;100.00;98551.97;5054735;28;20040;-58
2023/12/27 02:44:25;;;;;;;539.00;308.33;;;;;;;7.03;100.00;98559.03;5055606;28;20029;-56
2023/12/27 02:46:51;;;;;;;589.40;335.92;;;;;;;7.15;100.00;98566.16;5055524;28;20099;-57
2023/12/27 02:49:16;;;;;;;593.38;299.85;;;;;;;7.26;100.00;98563.78;5056459;28;20016;-55
2023/12/27 02:51:42;;;;;;;526.72;294.85;;;;;;;7.20;100.00;98561.94;5056862;28;20235;-57
2023/12/27 02:54:07;;;;;;;677.35;318.02;;;;;;;7.02;100.00;98554.69;5055050;28;20012;-57
2023/12/27 02:56:32;;;;;;;544.30;312.55;;;;;;;7.08;100.00;98546.16;5056214;28;20040;-58
2023/12/27 02:58:57;;;;;;;667.20;321.08;;;;;;;7.22;100.00;98544.75;5054337;28;20013;-59
2023/12/27 03:01:23;;;;;;;570.83;310.73;;;;;;;7.12;100.00;98543.69;5055931;28;20183;-58
2023/12/27 03:03:48;;;;;;;536.15;297.40;;;;;;;7.16;100.00;98555.84;5055986;28;20041;-58
2023/12/27 03:06:13;;;;;;;517.65;279.88;;;;;;;6.93;100.00;98546.72;5053207;28;20608;-57
2023/12/27 03:08:39;;;;;;;544.28;295.83;;;;;;;7.05;100.00;98546.97;5056629;28;20561;-59
2023/12/27 03:11:06;;;;;;;684.45;320.33;;;;;;;7.01;100.00;98540.00;5052180;28;20036;-58
2023/12/27 03:13:32;;;;;;;530.97;311.25;;;;;;;6.96;100.00;98539.94;5056275;28;20488;-59
2023/12/27 03:15:57;;;;;;;692.67;317.60;;;;;;;7.04;100.00;98542.66;5054441;28;20032;-58
2023/12/27 03:18:23;;;;;;;535.40;307.67;;;;;;;6.90;100.00;98540.66;5054943;28;20039;-58
2023/12/27 03:20:48;;;;;;;525.63;306.67;;;;;;;6.73;100.00;98544.63;5055499;28;20048;-58
2023/12/27 03:23:14;;;;;;;625.95;317.10;;;;;;;6.91;100.00;98544.13;5054379;28;20020;-58
2023/12/27 03:25:39;;;;;;;578.58;358.65;;;;;;;6.78;100.00;98535.25;5055178;28;20566;-58
2023/12/27 03:28:05;;;;;;;638.53;350.95;;;;;;;6.80;100.00;98533.56;5054818;28;20120;-57
2023/12/27 03:30:30;;;;;;;602.58;346.95;;;;;;;6.91;100.00;98541.56;5054596;28;20043;-56
2023/12/27 03:32:55;;;;;;;662.53;344.63;;;;;;;6.95;100.00;98539.91;5053897;28;20443;-58
2023/12/27 03:35:21;;;;;;;551.10;335.25;;;;;;;6.96;100.00;98544.22;5054172;28;20028;-57
2023/12/27 03:37:46;;;;;;;570.10;340.63;;;;;;;6.88;100.00;98539.78;5055666;28;20020;-59
2023/12/27 03:40:12;;;;;;;602.90;348.02;;;;;;;6.89;100.00;98536.34;5051967;28;21465;-58
2023/12/27 03:42:37;;;;;;;590.80;430.73;;;;;;;6.81;100.00;98547.34;5056246;28;20154;-57
2023/12/27 03:45:03;;;;;;;707.22;357.73;;;;;;;6.83;100.00;98543.09;5054539;28;20119;-57
2023/12/27 03:47:28;;;;;;;535.78;330.77;;;;;;;6.84;100.00;98547.44;5053093;28;20036;-57
2023/12/27 03:49:53;;;;;;;549.65;325.15;;;;;;;6.87;100.00;98542.34;5052711;28;20483;-56
2023/12/27 03:52:19;;;;;;;555.40;349.17;;;;;;;6.81;100.00;98540.50;5054771;28;20339;-56
2023/12/27 03:54:45;;;;;;;576.28;342.23;;;;;;;6.76;100.00;98539.53;5055567;28;20369;-54
2023/12/27 03:57:11;;;;;;;693.20;336.23;;;;;;;6.69;100.00;98538.53;5053818;28;20041;-56
2023/12/27 03:59:37;;;;;;;566.33;304.92;;;;;;;6.66;100.00;98545.31;5055470;28;20070;-58
2023/12/27 04:02:03;;;;;;;612.47;324.13;;;;;;;6.63;100.00;98541.84;5051961;28;20036;-57
2023/12/27 04:04:28;;;;;;;544.15;326.27;;;;;;;6.69;100.00;98540.22;5054571;28;20042;-57
2023/12/27 04:06:53;;;;;;;554.55;309.92;;;;;;;6.71;100.00;98538.53;5054774;28;20123;-57
2023/12/27 04:09:19;;;;;;;598.17;311.08;;;;;;;6.73;100.00;98542.03;5052665;28;20025;-58
2023/12/27 04:11:45;;;;;;;538.17;315.60;;;;;;;6.70;100.00;98531.63;5055104;28;20128;-57
2023/12/27 04:14:14;;;;;;;661.25;324.88;;;;;;;6.70;100.00;98545.44;5051392;28;20511;-59
2023/12/27 04:16:39;;;;;;;509.58;300.27;;;;;;;6.75;100.00;98546.41;5058265;28;20584;-57
2023/12/27 04:19:05;;;;;;;625.38;301.75;;;;;;;6.77;100.00;98549.03;5056101;28;20165;-57
2023/12/27 04:21:30;;;;;;;585.42;307.60;;;;;;;6.84;100.00;98558.66;5058777;28;20040;-58
2023/12/27 04:23:56;;;;;;;566.88;334.45;;;;;;;6.79;100.00;98578.34;5057941;28;20071;-57
2023/12/27 04:26:22;;;;;;;523.15;307.58;;;;;;;6.78;100.00;98566.28;5057624;28;20235;-58
2023/12/27 04:28:47;;;;;;;574.80;323.02;;;;;;;6.73;100.00;98565.31;5058787;28;20024;-56
2023/12/27 04:31:13;;;;;;;672.72;340.33;;;;;;;6.68;100.00;98569.50;5056353;28;20471;-57
2023/12/27 04:33:38;;;;;;;524.20;307.98;;;;;;;6.75;100.00;98567.09;5058450;28;20533;-58
2023/12/27 04:36:04;;;;;;;706.58;348.83;;;;;;;6.54;100.00;98558.88;5055871;28;20032;-58
2023/12/27 04:38:29;;;;;;;549.33;352.77;;;;;;;6.61;100.00;98553.84;5058105;28;20175;-58
2023/12/27 04:40:55;;;;;;;557.90;339.05;;;;;;;6.64;100.00;98541.00;5058063;28;20041;-59
2023/12/27 04:43:20;;;;;;;551.28;315.77;;;;;;;6.64;100.00;98538.41;5055856;28;20244;-57
2023/12/27 04:45:45;;;;;;;560.55;337.63;;;;;;;6.53;100.00;98544.19;5058682;28;20056;-57
2023/12/27 04:48:11;;;;;;;616.30;328.90;;;;;;;6.43;100.00;98536.25;5056620;28;20082;-58
2023/12/27 04:50:36;;;;;;;566.28;313.92;;;;;;;6.25;100.00;98529.84;5057916;28;20063;-58
2023/12/27 04:53:01;;;;;;;682.92;339.35;;;;;;;6.12;100.00;98530.38;5056923;28;20051;-58
2023/12/27 04:55:27;;;;;;;565.25;350.83;;;;;;;6.02;100.00;98518.94;5057321;28;20032;-57
2023/12/27 04:57:52;;;;;;;565.50;350.55;;;;;;;5.94;100.00;98523.91;5059275;28;20063;-58
2023/12/27 05:00:17;;;;;;;570.00;370.73;;;;;;;5.80;100.00;98525.28;5054588;28;20029;-58
2023/12/27 05:02:43;;;;;;;562.78;366.38;;;;;;;5.76;100.00;98521.75;5058941;28;20464;-58
2023/12/27 05:05:08;;;;;;;712.20;374.38;;;;;;;5.76;100.00;98523.47;5056022;28;20408;-58
2023/12/27 05:07:33;;;;;;;568.85;362.60;;;;;;;5.66;100.00;98528.41;5058985;28;20594;-58
2023/12/27 05:09:59;;;;;;;555.17;351.70;;;;;;;5.58;100.00;98524.75;5056165;28;20079;-57
2023/12/27 05:12:24;;;;;;;554.58;349.13;;;;;;;5.59;100.00;98527.38;5057469;28;20037;-58
2023/12/27 05:14:49;;;;;;;535.00;346.00;;;;;;;5.54;100.00;98512.59;5057575;28;20024;-59
2023/12/27 05:17:15;;;;;;;678.10;365.77;;;;;;;5.41;100.00;98516.56;5056314;28;20190;-57
2023/12/27 05:19:40;;;;;;;571.03;359.45;;;;;;;5.33;100.00;98512.09;5056912;28;20044;-58
2023/12/27 05:22:05;;;;;;;681.47;366.15;;;;;;;5.29;100.00;98515.44;5055450;28;20037;-58
2023/12/27 05:24:31;;;;;;;565.95;365.67;;;;;;;5.28;100.00;98521.44;5058379;28;20368;-57
2023/12/27 05:26:56;;;;;;;542.28;379.15;;;;;;;5.25;100.00;98530.78;5057683;28;20511;-58
2023/12/27 05:29:21;;;;;;;588.90;368.55;;;;;;;5.26;100.00;98535.97;5056197;28;21088;-56
2023/12/27 05:31:47;;;;;;;549.28;366.15;;;;;;;5.31;100.00;98541.28;5057511;28;20523;-58
2023/12/27 05:34:12;;;;;;;690.22;381.08;;;;;;;5.27;100.00;98535.13;5055489;28;20032;-59
2023/12/27 05:36:37;;;;;;;555.70;366.92;;;;;;;5.22;100.00;98539.31;5057126;28;20086;-58
2023/12/27 05:39:03;;;;;;;664.40;369.90;;;;;;;5.14;100.00;98539.09;5055200;28;20032;-58
2023/12/27 05:41:29;;;;;;;567.53;388.50;;;;;;;5.24;100.00;98537.66;5057372;28;20056;-58
2023/12/27 05:43:55;;;;;;;565.85;389.50;;;;;;;5.45;100.00;98531.28;5057757;28;20558;-58
2023/12/27 05:46:20;;;;;;;562.20;384.85;;;;;;;5.58;100.00;98530.81;5055752;28;20040;-58
2023/12/27 05:48:46;;;;;;;580.58;373.65;;;;;;;5.57;100.00;98541.06;5058307;28;20037;-57
2023/12/27 05:51:11;;;;;;;686.92;396.02;;;;;;;5.78;100.00;98539.84;5055466;28;20041;-59
2023/12/27 05:53:37;;;;;;;547.97;361.77;;;;;;;5.89;100.00;98542.69;5050478;28;20144;-59
2023/12/27 05:56:02;;;;;;;593.22;381.65;;;;;;;5.53;100.00;98547.00;5056316;28;20325;-58
2023/12/27 05:58:28;;;;;;;544.28;358.15;;;;;;;5.71;100.00;98542.28;5057976;28;20052;-57
2023/12/27 06:00:53;;;;;;;523.85;364.63;;;;;;;5.70;100.00;98547.41;5054938;28;20060;-57
2023/12/27 06:03:19;;;;;;;712.50;386.90;;;;;;;5.68;100.00;98546.50;5055880;28;20107;-56
2023/12/27 06:05:44;;;;;;;529.13;365.33;;;;;;;5.54;100.00;98541.88;5055885;28;20052;-58
2023/12/27 06:08:09;;;;;;;655.72;378.00;;;;;;;5.22;100.00;98534.16;5056360;28;20032;-57
2023/12/27 06:10:36;;;;;;;566.05;356.50;;;;;;;5.16;100.00;98541.72;5056288;28;20063;-57
2023/12/27 06:13:02;;;;;;;595.47;365.40;;;;;;;5.43;100.00;98545.88;5056806;28;20576;-57
2023/12/27 06:15:27;;;;;;;563.22;364.80;;;;;;;5.11;100.00;98532.97;5055609;28;20037;-59
2023/12/27 06:17:53;;;;;;;564.97;360.40;;;;;;;5.12;100.00;98539.91;5057512;28;20036;-57
2023/12/27 06:20:18;;;;;;;679.35;376.20;;;;;;;5.27;100.00;98535.13;5055615;28;20403;-58
2023/12/27 06:22:43;;;;;;;537.92;332.63;;;;;;;5.27;100.00;98539.44;5058098;28;20435;-58
2023/12/27 06:25:09;;;;;;;654.65;367.38;;;;;;;5.30;100.00;98542.97;5054730;28;20040;-57
2023/12/27 06:27:34;;;;;;;535.92;369.67;;;;;;;5.29;100.00;98548.06;5057971;28;20039;-58
2023/12/27 06:29:59;;;;;;;546.28;374.17;;;;;;;5.29;100.00;98545.50;5057534;28;20579;-57
2023/12/27 06:32:25;;;;;;;586.35;386.73;;;;;;;5.26;100.00;98548.88;5055326;28;20067;-58
2023/12/27 06:34:50;;;;;;;546.22;372.08;;;;;;;5.37;100.00;98554.31;5057898;28;20049;-58
2023/12/27 06:37:15;;;;;;;691.75;394.90;;;;;;;5.19;100.00;98545.25;5055430;28;20094;-57
2023/12/27 06:39:41;;;;;;;555.75;376.25;;;;;;;5.01;100.00;98544.75;5057186;28;20511;-58
2023/12/27 06:42:07;;;;;;;622.83;372.20;;;;;;;4.98;100.00;98547.25;5055769;28;20097;-57
2023/12/27 06:44:32;;;;;;;548.25;347.02;;;;;;;4.89;100.00;98542.69;5057940;28;20024;-57
2023/12/27 06:46:58;;;;;;;563.95;362.70;;;;;;;5.01;100.00;98543.03;5057471;28;20131;-57
2023/12/27 06:49:23;;;;;;;581.53;368.98;;;;;;;5.11;100.00;98540.69;5056186;28;20066;-58
2023/12/27 06:51:48;;;;;;;533.25;343.38;;;;;;;5.17;100.00;98535.72;5056873;28;20036;-57
2023/12/27 06:54:14;;;;;;;606.85;365.35;;;;;;;5.11;100.00;98538.13;5056641;28;20408;-57
2023/12/27 06:56:39;;;;;;;554.97;373.67;;;;;;;5.04;100.00;98537.97;5058033;28;20028;-56
2023/12/27 06:59:05;;;;;;;509.90;338.15;;;;;;;4.77;100.00;98530.31;5059287;28;20598;-58
2023/12/27 07:01:31;;;;;;;509.05;319.25;;;;;;;4.81;100.00;98540.78;5058103;28;20036;-58
2023/12/27 07:03:56;;;;;;;520.30;333.90;;;;;;;4.94;100.00;98538.56;5058830;28;20051;-57
2023/12/27 07:06:21;;;;;;;549.88;343.15;;;;;;;4.89;100.00;98537.53;5057384;28;20064;-57
2023/12/27 07:08:47;;;;;;;494.17;320.25;;;;;;;5.11;100.00;98543.28;5058478;28;20085;-58
2023/12/27 07:11:19;;;;;;;574.75;338.65;;;;;;;5.07;100.00;98542.34;5057056;28;20059;-56
2023/12/27 07:13:46;;;;;;;513.58;336.73;;;;;;;5.16;100.00;98544.31;5057226;28;20024;-57
2023/12/27 07:16:13;;;;;;;615.22;355.02;;;;;;;5.26;100.00;98540.25;5055361;28;20044;-56
2023/12/27 07:18:38;;;;;;;537.78;348.58;;;;;;;5.30;100.00;98539.50;5057971;28;20400;-56
2023/12/27 07:21:05;;;;;;;537.65;352.52;;;;;;;5.17;100.00;98538.31;5056980;28;20029;-56
2023/12/27 07:23:30;;;;;;;569.67;367.17;;;;;;;5.25;100.00;98531.66;5058037;28;20442;-57
2023/12/27 07:25:56;;;;;;;560.40;364.50;;;;;;;5.21;100.00;98537.56;5056948;28;20534;-56
2023/12/27 07:28:22;;;;;;;551.33;353.55;;;;;;;5.23;100.00;98541.03;5055445;28;20109;-56
2023/12/27 07:30:48;;;;;;;526.58;296.02;;;;;;;5.30;100.00;98529.19;5057164;28;20040;-58
2023/12/27 07:33:15;;;;;;;554.97;275.90;;;;;;;5.44;100.00;98539.88;5056619;28;20590;-56
2023/12/27 07:35:42;;;;;;;500.38;276.23;;;;;;;5.54;100.00;98528.97;5057856;28;20397;-57
2023/12/27 07:38:08;;;;;;;553.30;277.98;;;;;;;5.42;100.00;98532.09;5055566;28;20050;-58
2023/12/27 07:40:34;;;;;;;491.65;287.77;;;;;;;5.40;100.00;98522.56;5056514;28;20044;-57
2023/12/27 07:42:59;;;;;;;517.63;294.63;;;;;;;5.41;100.00;98526.88;5057938;28;20017;-56
2023/12/27 07:45:25;;;;;;;508.58;279.98;;;;;;;5.39;100.00;98525.97;5056104;28;20040;-56
2023/12/27 07:47:50;;;;;;;496.02;296.58;;;;;;;5.41;100.00;98532.03;5058786;28;20026;-57
2023/12/27 07:50:15;;;;;;;565.05;308.02;;;;;;;5.30;100.00;98530.06;5054936;28;20021;-58
2023/12/27 07:52:42;;;;;;;562.78;308.05;;;;;;;5.13;100.00;98532.22;5057504;28;20028;-58
2023/12/27 07:55:08;;;;;;;563.72;326.13;;;;;;;5.01;100.00;98539.59;5047917;28;20020;-58
2023/12/27 07:57:33;;;;;;;547.40;320.65;;;;;;;5.01;100.00;98532.72;5055319;28;20427;-59
2023/12/27 07:59:59;;;;;;;557.10;305.80;;;;;;;5.02;100.00;98537.06;5057334;28;20059;-57
2023/12/27 08:02:24;;;;;;;534.03;310.10;;;;;;;5.34;100.00;98542.22;5056135;28;20060;-60
2023/12/27 08:04:50;;;;;;;495.33;302.90;;;;;;;5.45;100.00;98541.59;5058425;28;20032;-60
2023/12/27 08:07:16;;;;;;;591.00;326.38;;;;;;;5.52;100.00;98552.97;5055739;28;20040;-57
2023/12/27 08:09:41;;;;;;;543.08;331.83;;;;;;;5.75;100.00;98550.13;5056148;28;20024;-57
2023/12/27 08:12:07;;;;;;;553.40;334.67;;;;;;;5.94;100.00;98541.97;5056045;28;20573;-58
2023/12/27 08:14:32;;;;;;;554.05;327.85;;;;;;;5.97;100.00;98560.13;5057224;28;20031;-58
2023/12/27 08:16:58;;;;;;;518.28;336.67;;;;;;;5.87;100.00;98565.91;5057489;28;20348;-60
2023/12/27 08:19:23;;;;;;;596.10;337.83;;;;;;;5.76;100.00;98570.81;5055367;28;20074;-59
2023/12/27 08:21:48;;;;;;;573.40;329.17;;;;;;;5.66;100.00;98569.69;5057094;28;20218;-59
2023/12/27 08:24:14;;;;;;;586.78;327.85;;;;;;;5.75;100.00;98565.59;5054401;28;20082;-60
2023/12/27 08:26:39;;;;;;;513.17;288.63;;;;;;;5.54;100.00;98564.22;5057060;28;20135;-57
2023/12/27 08:29:04;;;;;;;530.00;297.02;;;;;;;5.89;100.00;98564.22;5056757;28;20051;-57
2023/12/27 08:31:30;;;;;;;514.80;299.98;;;;;;;6.08;100.00;98569.88;5056395;28;20447;-57
2023/12/27 08:33:58;;;;;;;504.73;315.17;;;;;;;6.17;100.00;98571.81;5057919;28;20352;-56
2023/12/27 08:36:24;;;;;;;576.00;331.40;;;;;;;6.15;100.00;98579.53;5055595;28;20065;-57
2023/12/27 08:38:50;;;;;;;516.20;329.52;;;;;;;6.20;100.00;98582.22;5057081;28;20059;-58
2023/12/27 08:41:15;;;;;;;570.97;327.58;;;;;;;6.42;100.00;98575.81;5054272;28;20094;-57
2023/12/27 08:43:42;;;;;;;575.03;344.23;;;;;;;6.65;100.00;98580.66;5056589;28;20024;-56
2023/12/27 08:46:11;;;;;;;534.58;351.27;;;;;;;6.96;100.00;98573.56;5056661;28;20126;-58
2023/12/27 08:48:37;;;;;;;473.48;292.88;;;;;;;7.15;100.00;98582.56;5057407;28;20020;-57
2023/12/27 08:51:02;;;;;;;448.20;251.98;;;;;;;7.24;100.00;98581.00;5056292;28;20544;-57
2023/12/27 08:53:29;;;;;;;465.70;250.85;;;;;;;7.39;100.00;98575.25;5055627;28;20024;-59
2023/12/27 08:55:54;;;;;;;418.85;238.93;;;;;;;7.33;100.00;98570.81;5054395;28;20275;-57
2023/12/27 08:58:20;;;;;;;516.28;263.27;;;;;;;7.48;100.00;98564.19;5056038;28;20021;-57
2023/12/27 09:00:45;;;;;;;481.83;258.38;;;;;;;7.65;100.00;98559.31;5054799;28;20048;-58
2023/12/27 09:03:11;;;;;;;493.65;262.92;;;;;;;7.98;100.00;98554.69;5051704;28;20210;-58
2023/12/27 09:05:36;;;;;;;477.02;265.58;;;;;;;8.24;100.00;98567.19;5061558;28;20032;-57
2023/12/27 09:08:02;;;;;;;477.38;270.02;;;;;;;8.33;100.00;98577.69;5063372;28;20039;-58
2023/12/27 09:10:27;;;;;;;484.02;258.58;;;;;;;8.60;100.00;98581.56;5061259;28;20051;-58
2023/12/27 09:12:52;;;;;;;440.70;249.77;;;;;;;8.45;100.00;98593.41;5064219;28;20557;-57
2023/12/27 09:15:18;;;;;;;423.75;246.30;;;;;;;8.81;100.00;98587.88;5061481;28;20453;-56
2023/12/27 09:17:43;;;;;;;473.85;254.50;;;;;;;8.68;100.00;98574.75;5064148;28;20559;-58
2023/12/27 09:20:09;;;;;;;462.02;252.35;;;;;;;8.97;100.00;98574.28;5060965;28;20028;-56
2023/12/27 09:22:35;;;;;;;461.08;248.43;;;;;;;8.88;100.00;98566.38;5063931;28;20013;-57
2023/12/27 09:25:01;;;;;;;465.45;253.40;;;;;;;9.05;100.00;98563.13;5062132;28;20040;-57
2023/12/27 09:27:26;;;;;;;510.08;268.55;;;;;;;8.72;100.00;98563.56;5053842;28;20078;-57
2023/12/27 09:29:52;;;;;;;456.90;252.25;;;;;;;9.06;100.00;98555.31;5063753;28;20028;-57
2023/12/27 09:32:18;;;;;;;530.38;249.15;;;;;;;9.20;100.00;98550.31;5062192;28;20044;-57
2023/12/27 09:34:43;;;;;;;459.73;256.10;;;;;;;9.09;100.00;98546.72;5064706;28;20488;-57
2023/12/27 09:37:09;;;;;;;498.08;252.60;;;;;;;9.24;100.00;98538.22;5061525;28;20086;-57
2023/12/27 09:39:34;;;;;;;478.65;247.30;;;;;;;8.96;100.00;98544.00;5061124;28;20412;-57
2023/12/27 09:42:00;;;;;;;473.15;253.27;;;;;;;9.42;100.00;98534.09;5062474;28;20033;-58
2023/12/27 09:44:26;;;;;;;484.27;257.35;;;;;;;9.28;100.00;98521.81;5063182;28;20059;-57
2023/12/27 09:46:51;;;;;;;460.30;251.88;;;;;;;9.59;100.00;98503.09;5062553;28;20399;-58
2023/12/27 09:49:20;;;;;;;596.08;271.88;;;;;;;9.67;100.00;98505.75;5062382;28;20051;-56
2023/12/27 09:51:47;;;;;;;479.00;259.23;;;;;;;9.93;100.00;98508.56;5062246;28;20586;-57
2023/12/27 09:54:13;;;;;;;517.47;258.38;;;;;;;10.32;100.00;98507.97;5061375;28;20025;-57
2023/12/27 09:56:39;;;;;;;479.40;255.43;;;;;;;10.32;100.00;98498.41;5062968;28;20040;-58
2023/12/27 09:59:10;;;;;;;505.90;271.48;;;;;;;10.46;100.00;98488.13;5063552;28;20029;-56
2023/12/27 10:01:41;;;;;;;532.03;305.93;;;;;;;9.58;100.00;98483.19;5063077;28;20036;-57
2023/12/27 10:04:23;;;;;;;564.60;386.70;;;;;;;8.73;100.00;98473.69;5062411;28;20316;-57
2023/12/27 10:06:49;;;;;;;518.10;344.90;;;;;;;8.75;100.00;98486.66;5061630;28;20587;-57
2023/12/27 10:09:15;;;;;;;597.00;362.10;;;;;;;8.92;100.00;98479.94;5062207;28;20036;-61
2023/12/27 10:11:43;;;;;;;484.98;299.85;;;;;;;9.02;100.00;98465.31;5062260;28;20035;-58
2023/12/27 10:14:09;;;;;;;672.38;455.80;;;;;;;8.91;100.00;98460.03;5060331;28;20017;-58
2023/12/27 10:16:36;;;;;;;519.63;451.38;;;;;;;8.82;100.00;98453.03;5062310;28;20418;-58
2023/12/27 10:19:04;;;;;;;533.63;395.25;;;;;;;8.91;100.00;98441.00;5062962;28;20044;-58
2023/12/27 10:21:40;;;;;;;589.08;339.73;;;;;;;9.02;100.00;98441.13;5059759;28;20555;-58
2023/12/27 10:24:06;;;;;;;575.67;473.60;;;;;;;8.97;100.00;98426.38;5062105;28;20036;-58
2023/12/27 10:26:31;;;;;;;610.50;474.52;;;;;;;9.07;100.00;98421.28;5060534;28;20040;-57
2023/12/27 10:28:56;;;;;;;563.72;410.35;;;;;;;8.90;100.00;98423.72;5062626;28;20036;-59
2023/12/27 10:31:24;;;;;;;525.17;340.48;;;;;;;9.25;100.00;98421.44;5060032;28;20063;-59
2023/12/27 10:33:49;;;;;;;494.48;316.65;;;;;;;9.87;100.00;98414.97;5061968;28;20036;-58
2023/12/27 10:36:17;;;;;;;549.35;379.92;;;;;;;10.21;100.00;98412.56;5060340;28;20043;-59
2023/12/27 10:38:45;;;;;;;562.10;448.63;;;;;;;10.25;100.00;98396.13;5062641;28;20524;-57
2023/12/27 10:41:10;;;;;;;535.28;293.15;;;;;;;10.65;100.00;98394.59;5061149;28;20571;-58
2023/12/27 10:43:35;;;;;;;508.73;375.88;;;;;;;10.47;100.00;98395.38;5060742;28;20025;-57
2023/12/27 10:46:10;;;;;;;531.40;373.30;;;;;;;10.31;100.00;98389.22;5062186;28;20035;-59
2023/12/27 10:48:40;;;;;;;570.90;405.30;;;;;;;10.40;100.00;98397.91;5060489;28;20024;-59
2023/12/27 10:51:09;;;;;;;549.22;405.00;;;;;;;10.18;100.00;98403.88;5060941;28;20028;-58
2023/12/27 10:53:35;;;;;;;470.25;250.50;;;;;;;10.49;100.00;98399.72;5061106;28;20488;-58
2023/12/27 10:56:02;;;;;;;485.92;245.90;;;;;;;11.20;100.00;98393.81;5060871;28;20528;-58